sensor_id;sensor_type;location;lat;lon;timestamp;pressure;altitude;pressure_sealevel;temperature;humidity
64792;BME280;51226;47.504;19.074;2023-09-30T00:00:33;100741.00;;;18.91;55.35
64792;BME280;51226;47.504;19.074;2023-09-30T00:03:56;100732.22;;;18.95;55.30
64792;BME280;51226;47.504;19.074;2023-09-30T00:07:00;100734.00;;;18.95;55.57
64792;BME280;51226;47.504;19.074;2023-09-30T00:10:02;100737.41;;;18.87;55.56
64792;BME280;51226;47.504;19.074;2023-09-30T00:13:06;100728.59;;;18.85;55.57
64792;BME280;51226;47.504;19.074;2023-09-30T00:16:09;100725.06;;;18.83;55.69
64792;BME280;51226;47.504;19.074;2023-09-30T00:19:12;100727.72;;;18.85;55.93
64792;BME280;51226;47.504;19.074;2023-09-30T00:22:16;100725.97;;;18.85;55.85
64792;BME280;51226;47.504;19.074;2023-09-30T00:25:18;100728.53;;;18.82;55.70
64792;BME280;51226;47.504;19.074;2023-09-30T00:28:23;100722.44;;;18.85;55.63
64792;BME280;51226;47.504;19.074;2023-09-30T00:31:26;100720.69;;;18.87;55.86
64792;BME280;51226;47.504;19.074;2023-09-30T00:34:28;100723.22;;;18.78;56.01
64792;BME280;51226;47.504;19.074;2023-09-30T00:37:31;100712.59;;;18.73;56.12
64792;BME280;51226;47.504;19.074;2023-09-30T00:40:34;100717.91;;;18.75;56.20
64792;BME280;51226;47.504;19.074;2023-09-30T00:43:37;100715.25;;;18.75;56.21
64792;BME280;51226;47.504;19.074;2023-09-30T00:46:40;100716.97;;;18.69;56.43
64792;BME280;51226;47.504;19.074;2023-09-30T00:49:44;100699.34;;;18.68;56.45
64792;BME280;51226;47.504;19.074;2023-09-30T00:52:47;100699.34;;;18.68;56.54
64792;BME280;51226;47.504;19.074;2023-09-30T00:55:51;100699.34;;;18.68;57.15
64792;BME280;51226;47.504;19.074;2023-09-30T00:58:55;100707.22;;;18.65;57.14
64792;BME280;51226;47.504;19.074;2023-09-30T01:01:58;100704.50;;;18.56;57.34
64792;BME280;51226;47.504;19.074;2023-09-30T01:05:03;100703.56;;;18.52;57.59
64792;BME280;51226;47.504;19.074;2023-09-30T01:08:06;100694.75;;;18.52;57.65
64792;BME280;51226;47.504;19.074;2023-09-30T01:11:08;100705.34;;;18.52;57.78
64792;BME280;51226;47.504;19.074;2023-09-30T01:14:27;100704.47;;;18.53;57.64
64792;BME280;51226;47.504;19.074;2023-09-30T01:17:31;100699.19;;;18.53;57.68
64792;BME280;51226;47.504;19.074;2023-09-30T01:20:35;100701.81;;;18.51;57.88
64792;BME280;51226;47.504;19.074;2023-09-30T01:23:38;100704.47;;;18.53;57.90
64792;BME280;51226;47.504;19.074;2023-09-30T01:26:41;100702.69;;;18.52;57.80
64792;BME280;51226;47.504;19.074;2023-09-30T01:29:47;100699.16;;;18.50;57.64
64792;BME280;51226;47.504;19.074;2023-09-30T01:32:50;100702.63;;;18.44;57.72
64792;BME280;51226;47.504;19.074;2023-09-30T01:35:52;100703.44;;;18.40;57.87
64792;BME280;51226;47.504;19.074;2023-09-30T01:38:55;100697.28;;;18.40;58.20
64792;BME280;51226;47.504;19.074;2023-09-30T01:41:59;100699.00;;;18.36;58.24
64792;BME280;51226;47.504;19.074;2023-09-30T01:45:02;100697.28;;;18.38;58.13
64792;BME280;51226;47.504;19.074;2023-09-30T01:48:05;100704.28;;;18.36;58.16
64792;BME280;51226;47.504;19.074;2023-09-30T01:51:07;100698.09;;;18.34;58.32
64792;BME280;51226;47.504;19.074;2023-09-30T01:54:10;100692.78;;;18.29;58.47
64792;BME280;51226;47.504;19.074;2023-09-30T01:57:13;100697.13;;;18.27;58.64
64792;BME280;51226;47.504;19.074;2023-09-30T02:00:16;100693.53;;;18.21;58.97
64792;BME280;51226;47.504;19.074;2023-09-30T02:03:20;100696.16;;;18.19;59.27
64792;BME280;51226;47.504;19.074;2023-09-30T02:06:22;100696.16;;;18.16;59.47
64792;BME280;51226;47.504;19.074;2023-09-30T02:09:26;100693.47;;;18.14;59.41
64792;BME280;51226;47.504;19.074;2023-09-30T02:12:28;100688.19;;;18.13;59.41
64792;BME280;51226;47.504;19.074;2023-09-30T02:15:31;100692.56;;;18.12;59.30
64792;BME280;51226;47.504;19.074;2023-09-30T02:18:34;100692.53;;;18.08;59.27
64792;BME280;51226;47.504;19.074;2023-09-30T02:21:37;100693.34;;;18.04;59.36
64792;BME280;51226;47.504;19.074;2023-09-30T02:24:40;100691.59;;;18.03;59.68
64792;BME280;51226;47.504;19.074;2023-09-30T02:27:43;100681.84;;;18.00;59.69
64792;BME280;51226;47.504;19.074;2023-09-30T02:30:46;100685.38;;;17.98;59.99
64792;BME280;51226;47.504;19.074;2023-09-30T02:33:48;100685.38;;;17.98;60.40
64792;BME280;51226;47.504;19.074;2023-09-30T02:36:53;100684.41;;;17.91;60.44
64792;BME280;51226;47.504;19.074;2023-09-30T02:39:57;100680.00;;;17.91;60.62
64792;BME280;51226;47.504;19.074;2023-09-30T02:43:00;100679.06;;;17.88;60.72
64792;BME280;51226;47.504;19.074;2023-09-30T02:46:03;100677.31;;;17.88;60.72
64792;BME280;51226;47.504;19.074;2023-09-30T02:49:06;100685.22;;;17.87;60.74
64792;BME280;51226;47.504;19.074;2023-09-30T02:52:08;100680.75;;;17.84;60.82
64792;BME280;51226;47.504;19.074;2023-09-30T02:55:11;100680.75;;;17.83;60.81
64792;BME280;51226;47.504;19.074;2023-09-30T02:58:14;100688.63;;;17.81;61.02
64792;BME280;51226;47.504;19.074;2023-09-30T03:01:17;100685.94;;;17.76;60.92
64792;BME280;51226;47.504;19.074;2023-09-30T03:04:20;100683.25;;;17.75;60.92
64792;BME280;51226;47.504;19.074;2023-09-30T03:07:23;100685.03;;;17.74;60.86
64792;BME280;51226;47.504;19.074;2023-09-30T03:10:26;100683.25;;;17.73;61.05
64792;BME280;51226;47.504;19.074;2023-09-30T03:13:30;100685.78;;;17.67;61.06
64792;BME280;51226;47.504;19.074;2023-09-30T03:16:33;100692.78;;;17.64;61.03
64792;BME280;51226;47.504;19.074;2023-09-30T03:19:36;100697.97;;;17.57;61.15
64792;BME280;51226;47.504;19.074;2023-09-30T03:22:42;100694.47;;;17.58;61.34
64792;BME280;51226;47.504;19.074;2023-09-30T03:25:45;100693.59;;;17.58;61.17
64792;BME280;51226;47.504;19.074;2023-09-30T03:28:48;100701.47;;;17.56;61.12
64792;BME280;51226;47.504;19.074;2023-09-30T03:31:54;100708.37;;;17.48;61.32
64792;BME280;51226;47.504;19.074;2023-09-30T03:34:57;100704.81;;;17.45;61.39
64792;BME280;51226;47.504;19.074;2023-09-30T03:38:03;100702.19;;;17.45;61.36
64792;BME280;51226;47.504;19.074;2023-09-30T03:41:07;100700.34;;;17.40;61.43
64792;BME280;51226;47.504;19.074;2023-09-30T03:44:10;100701.22;;;17.38;61.51
64792;BME280;51226;47.504;19.074;2023-09-30T03:47:13;100701.22;;;17.38;61.49
64792;BME280;51226;47.504;19.074;2023-09-30T03:50:16;100699.38;;;17.35;61.76
64792;BME280;51226;47.504;19.074;2023-09-30T03:53:19;100698.41;;;17.29;61.85
64792;BME280;51226;47.504;19.074;2023-09-30T03:56:22;100704.56;;;17.28;61.96
64792;BME280;51226;47.504;19.074;2023-09-30T03:59:25;100708.97;;;17.30;62.42
64792;BME280;51226;47.504;19.074;2023-09-30T04:02:28;100705.47;;;17.30;62.75
64792;BME280;51226;47.504;19.074;2023-09-30T04:05:32;100705.28;;;17.19;62.96
64792;BME280;51226;47.504;19.074;2023-09-30T04:08:38;100714.00;;;17.13;63.28
64792;BME280;51226;47.504;19.074;2023-09-30T04:11:41;100711.28;;;17.10;63.44
64792;BME280;51226;47.504;19.074;2023-09-30T04:14:44;100706.91;;;17.09;63.55
64792;BME280;51226;47.504;19.074;2023-09-30T04:17:50;100706.00;;;17.09;63.55
64792;BME280;51226;47.504;19.074;2023-09-30T04:20:53;100706.03;;;17.10;63.74
64792;BME280;51226;47.504;19.074;2023-09-30T04:23:56;100706.94;;;17.12;63.66
64792;BME280;51226;47.504;19.074;2023-09-30T04:27:00;100704.31;;;17.11;63.80
64792;BME280;51226;47.504;19.074;2023-09-30T04:30:06;100706.00;;;17.09;63.94
64792;BME280;51226;47.504;19.074;2023-09-30T04:33:11;100715.66;;;17.08;64.13
64792;BME280;51226;47.504;19.074;2023-09-30T04:36:16;100719.13;;;17.06;64.39
64792;BME280;51226;47.504;19.074;2023-09-30T04:39:19;100718.19;;;17.02;64.72
64792;BME280;51226;47.504;19.074;2023-09-30T04:42:22;100722.53;;;16.98;65.00
64792;BME280;51226;47.504;19.074;2023-09-30T04:45:27;100722.53;;;16.98;65.15
64792;BME280;51226;47.504;19.074;2023-09-30T04:48:30;100722.53;;;16.98;65.06
64792;BME280;51226;47.504;19.074;2023-09-30T04:51:34;100721.59;;;16.95;65.11
64792;BME280;51226;47.504;19.074;2023-09-30T04:54:37;100727.75;;;16.97;64.96
64792;BME280;51226;47.504;19.074;2023-09-30T04:57:40;100721.66;;;16.98;64.69
64792;BME280;51226;47.504;19.074;2023-09-30T05:00:43;100738.41;;;17.03;64.70
64792;BME280;51226;47.504;19.074;2023-09-30T05:03:45;100725.31;;;17.06;64.74
64792;BME280;51226;47.504;19.074;2023-09-30T05:06:53;100724.50;;;17.12;64.59
64792;BME280;51226;47.504;19.074;2023-09-30T05:09:55;100730.72;;;17.15;64.48
64792;BME280;51226;47.504;19.074;2023-09-30T05:12:59;100736.03;;;17.18;64.41
64792;BME280;51226;47.504;19.074;2023-09-30T05:16:01;100744.88;;;17.22;64.42
64792;BME280;51226;47.504;19.074;2023-09-30T05:19:04;100745.87;;;17.30;64.48
64792;BME280;51226;47.504;19.074;2023-09-30T05:22:07;100745.16;;;17.39;64.24
64792;BME280;51226;47.504;19.074;2023-09-30T05:25:10;100739.97;;;17.45;63.83
64792;BME280;51226;47.504;19.074;2023-09-30T05:28:12;100741.87;;;17.55;63.86
64792;BME280;51226;47.504;19.074;2023-09-30T05:31:16;100739.31;;;17.60;63.65
64792;BME280;51226;47.504;19.074;2023-09-30T05:34:19;100742.13;;;17.69;63.26
64792;BME280;51226;47.504;19.074;2023-09-30T05:37:22;100745.72;;;17.76;62.94
64792;BME280;51226;47.504;19.074;2023-09-30T05:40:24;100751.09;;;17.84;62.84
64792;BME280;51226;47.504;19.074;2023-09-30T05:43:33;100753.88;;;17.91;62.74
64792;BME280;51226;47.504;19.074;2023-09-30T05:46:35;100748.75;;;18.02;62.21
64792;BME280;51226;47.504;19.074;2023-09-30T05:49:38;100747.28;;;18.23;61.76
64792;BME280;51226;47.504;19.074;2023-09-30T05:52:44;100750.88;;;18.32;61.42
64792;BME280;51226;47.504;19.074;2023-09-30T05:55:48;100752.91;;;18.54;60.76
64792;BME280;51226;47.504;19.074;2023-09-30T05:58:50;100752.94;;;18.57;60.68
64792;BME280;51226;47.504;19.074;2023-09-30T06:01:54;100751.34;;;18.71;60.23
64792;BME280;51226;47.504;19.074;2023-09-30T06:04:57;100752.41;;;18.88;59.63
64792;BME280;51226;47.504;19.074;2023-09-30T06:08:00;100758.72;;;19.00;59.28
64792;BME280;51226;47.504;19.074;2023-09-30T06:11:05;100757.03;;;19.13;58.82
64792;BME280;51226;47.504;19.074;2023-09-30T06:14:09;100751.06;;;19.35;58.04
64792;BME280;51226;47.504;19.074;2023-09-30T06:17:11;100749.47;;;19.57;57.60
64792;BME280;51226;47.504;19.074;2023-09-30T06:20:14;100761.91;;;19.72;57.34
64792;BME280;51226;47.504;19.074;2023-09-30T06:23:20;100759.37;;;19.86;56.77
64792;BME280;51226;47.504;19.074;2023-09-30T06:26:23;100758.59;;;20.03;56.39
64792;BME280;51226;47.504;19.074;2023-09-30T06:29:31;100761.25;;;20.07;56.21
64792;BME280;51226;47.504;19.074;2023-09-30T06:32:34;100753.38;;;20.23;55.67
64792;BME280;51226;47.504;19.074;2023-09-30T06:35:37;100758.75;;;20.32;55.26
64792;BME280;51226;47.504;19.074;2023-09-30T06:38:43;100763.16;;;20.39;55.18
64792;BME280;51226;47.504;19.074;2023-09-30T06:41:47;100755.28;;;20.59;54.63
64792;BME280;51226;47.504;19.074;2023-09-30T06:44:49;100755.41;;;20.88;53.39
64792;BME280;51226;47.504;19.074;2023-09-30T06:47:52;100756.28;;;21.03;53.17
64792;BME280;51226;47.504;19.074;2023-09-30T06:50:57;100759.84;;;21.05;52.85
64792;BME280;51226;47.504;19.074;2023-09-30T06:54:04;100762.47;;;20.99;53.29
64792;BME280;51226;47.504;19.074;2023-09-30T06:57:06;100761.59;;;21.04;52.89
64792;BME280;51226;47.504;19.074;2023-09-30T07:00:11;100766.03;;;21.04;52.95
64792;BME280;51226;47.504;19.074;2023-09-30T07:03:15;100769.53;;;21.04;52.74
64792;BME280;51226;47.504;19.074;2023-09-30T07:06:24;100770.44;;;20.96;53.47
64792;BME280;51226;47.504;19.074;2023-09-30T07:09:27;100769.53;;;21.00;52.96
64792;BME280;51226;47.504;19.074;2023-09-30T07:12:30;100772.19;;;21.01;52.93
64792;BME280;51226;47.504;19.074;2023-09-30T07:15:34;100774.84;;;21.00;52.68
64792;BME280;51226;47.504;19.074;2023-09-30T07:18:37;100781.94;;;21.13;52.47
64792;BME280;51226;47.504;19.074;2023-09-30T07:21:40;100778.41;;;21.19;52.53
64792;BME280;51226;47.504;19.074;2023-09-30T07:24:43;100776.63;;;21.33;52.15
64792;BME280;51226;47.504;19.074;2023-09-30T07:27:45;100776.69;;;21.50;49.69
64792;BME280;51226;47.504;19.074;2023-09-30T07:30:48;100782.81;;;21.43;49.56
64792;BME280;51226;47.504;19.074;2023-09-30T07:33:51;100783.75;;;21.63;48.62
64792;BME280;51226;47.504;19.074;2023-09-30T07:36:54;100780.19;;;21.74;48.49
64792;BME280;51226;47.504;19.074;2023-09-30T07:39:58;100777.50;;;21.92;48.19
64792;BME280;51226;47.504;19.074;2023-09-30T07:43:00;100780.09;;;22.06;48.29
64792;BME280;51226;47.504;19.074;2023-09-30T07:46:06;100782.69;;;22.28;47.87
64792;BME280;51226;47.504;19.074;2023-09-30T07:49:10;100783.47;;;22.62;47.29
64792;BME280;51226;47.504;19.074;2023-09-30T07:52:14;100781.47;;;22.95;46.51
64792;BME280;51226;47.504;19.074;2023-09-30T07:55:17;100783.47;;;23.83;44.47
64792;BME280;51226;47.504;19.074;2023-09-30T07:58:20;100782.34;;;25.38;41.47
64792;BME280;51226;47.504;19.074;2023-09-30T08:01:23;100774.62;;;26.61;38.34
64792;BME280;51226;47.504;19.074;2023-09-30T08:04:26;100774.88;;;26.08;38.74
64792;BME280;51226;47.504;19.074;2023-09-30T08:07:29;100778.28;;;26.15;38.97
64792;BME280;51226;47.504;19.074;2023-09-30T08:10:32;100782.03;;;25.56;39.93
64792;BME280;51226;47.504;19.074;2023-09-30T08:13:35;100783.88;;;26.46;38.50
64792;BME280;51226;47.504;19.074;2023-09-30T08:16:38;100787.13;;;27.40;36.64
64792;BME280;51226;47.504;19.074;2023-09-30T08:19:40;100780.22;;;27.30;36.57
64792;BME280;51226;47.504;19.074;2023-09-30T08:22:43;100781.22;;;27.62;36.15
64792;BME280;51226;47.504;19.074;2023-09-30T08:25:47;100786.81;;;27.51;36.36
64792;BME280;51226;47.504;19.074;2023-09-30T08:28:50;100780.59;;;27.50;37.07
64792;BME280;51226;47.504;19.074;2023-09-30T08:31:53;100785.87;;;27.16;37.01
64792;BME280;51226;47.504;19.074;2023-09-30T08:34:56;100777.03;;;26.75;37.34
64792;BME280;51226;47.504;19.074;2023-09-30T08:37:58;100770.81;;;26.31;38.42
64792;BME280;51226;47.504;19.074;2023-09-30T08:41:02;100778.28;;;26.16;38.43
64792;BME280;51226;47.504;19.074;2023-09-30T08:44:04;100772.28;;;26.03;38.96
64792;BME280;51226;47.504;19.074;2023-09-30T08:47:07;100766.59;;;26.20;38.83
64792;BME280;51226;47.504;19.074;2023-09-30T08:50:12;100769.72;;;26.41;38.53
64792;BME280;51226;47.504;19.074;2023-09-30T08:53:16;100770.59;;;26.84;37.73
64792;BME280;51226;47.504;19.074;2023-09-30T08:56:20;100767.50;;;27.01;36.28
64792;BME280;51226;47.504;19.074;2023-09-30T08:59:27;100771.91;;;27.75;36.12
64792;BME280;51226;47.504;19.074;2023-09-30T09:02:29;100760.16;;;28.43;34.42
64792;BME280;51226;47.504;19.074;2023-09-30T09:05:33;100759.75;;;28.87;33.61
64792;BME280;51226;47.504;19.074;2023-09-30T09:08:35;100756.22;;;29.12;32.71
64792;BME280;51226;47.504;19.074;2023-09-30T09:11:38;100764.59;;;29.02;32.80
64792;BME280;51226;47.504;19.074;2023-09-30T09:14:41;100765.84;;;28.64;33.39
64792;BME280;51226;47.504;19.074;2023-09-30T09:17:49;100766.44;;;28.42;33.87
64792;BME280;51226;47.504;19.074;2023-09-30T09:20:52;100762.78;;;28.45;33.41
64792;BME280;51226;47.504;19.074;2023-09-30T09:24:10;100764.62;;;28.43;33.64
64792;BME280;51226;47.504;19.074;2023-09-30T09:27:28;100764.38;;;28.52;33.81
64792;BME280;51226;47.504;19.074;2023-09-30T09:30:37;100754.94;;;28.39;34.50
64792;BME280;51226;47.504;19.074;2023-09-30T09:33:41;100757.97;;;28.26;34.87
64792;BME280;51226;47.504;19.074;2023-09-30T09:36:45;100745.25;;;28.03;35.20
64792;BME280;51226;47.504;19.074;2023-09-30T09:39:48;100746.94;;;27.73;35.66
64792;BME280;51226;47.504;19.074;2023-09-30T09:42:52;100744.19;;;27.43;36.60
64792;BME280;51226;47.504;19.074;2023-09-30T09:45:56;100744.81;;;27.17;36.76
64792;BME280;51226;47.504;19.074;2023-09-30T09:49:00;100743.03;;;26.80;37.75
64792;BME280;51226;47.504;19.074;2023-09-30T09:52:03;100745.31;;;26.56;38.22
64792;BME280;51226;47.504;19.074;2023-09-30T09:55:06;100743.16;;;26.33;38.67
64792;BME280;51226;47.504;19.074;2023-09-30T09:58:10;100747.84;;;26.22;38.94
64792;BME280;51226;47.504;19.074;2023-09-30T10:01:13;100742.81;;;26.06;39.12
64792;BME280;51226;47.504;19.074;2023-09-30T10:04:16;100743.53;;;26.15;38.37
64792;BME280;51226;47.504;19.074;2023-09-30T10:07:20;100740.22;;;26.02;38.76
64792;BME280;51226;47.504;19.074;2023-09-30T10:10:24;100745.16;;;25.75;39.45
64792;BME280;51226;47.504;19.074;2023-09-30T10:16:49;100739.31;;;25.56;40.21
64792;BME280;51226;47.504;19.074;2023-09-30T10:20:05;100741.66;;;25.73;40.12
64792;BME280;51226;47.504;19.074;2023-09-30T10:26:21;100732.88;;;26.13;39.47
64792;BME280;51226;47.504;19.074;2023-09-30T10:29:39;100729.00;;;26.69;37.78
64792;BME280;51226;47.504;19.074;2023-09-30T10:35:54;100731.66;;;27.06;37.89
64792;BME280;51226;47.504;19.074;2023-09-30T10:38:59;100726.75;;;26.88;38.37
64792;BME280;51226;47.504;19.074;2023-09-30T10:42:02;100735.91;;;26.79;38.58
64792;BME280;51226;47.504;19.074;2023-09-30T10:45:05;100730.78;;;26.70;38.52
64792;BME280;51226;47.504;19.074;2023-09-30T10:51:28;100735.56;;;26.54;38.60
64792;BME280;51226;47.504;19.074;2023-09-30T10:54:32;100734.16;;;26.36;39.00
64792;BME280;51226;47.504;19.074;2023-09-30T10:57:35;100734.63;;;26.14;39.53
64792;BME280;51226;47.504;19.074;2023-09-30T11:00:37;100727.78;;;25.99;39.55
64792;BME280;51226;47.504;19.074;2023-09-30T11:03:41;100732.47;;;25.88;39.61
64792;BME280;51226;47.504;19.074;2023-09-30T11:06:45;100724.09;;;25.60;40.22
64792;BME280;51226;47.504;19.074;2023-09-30T11:09:48;100727.97;;;25.42;40.70
64792;BME280;51226;47.504;19.074;2023-09-30T11:12:54;100716.47;;;25.38;40.69
64792;BME280;51226;47.504;19.074;2023-09-30T11:16:01;100730.16;;;25.17;41.21
64792;BME280;51226;47.504;19.074;2023-09-30T11:19:05;100726.09;;;24.92;41.92
64792;BME280;51226;47.504;19.074;2023-09-30T11:22:10;100738.78;;;24.78;42.28
64792;BME280;51226;47.504;19.074;2023-09-30T11:25:16;100736.53;;;24.46;43.11
64792;BME280;51226;47.504;19.074;2023-09-30T11:28:22;100726.97;;;24.31;43.73
64792;BME280;51226;47.504;19.074;2023-09-30T11:31:25;100734.28;;;24.13;44.30
64792;BME280;51226;47.504;19.074;2023-09-30T11:34:36;100732.69;;;23.97;44.77
64792;BME280;51226;47.504;19.074;2023-09-30T11:37:42;100744.47;;;23.74;45.26
64792;BME280;51226;47.504;19.074;2023-09-30T11:41:00;100740.97;;;23.69;45.74
64792;BME280;51226;47.504;19.074;2023-09-30T11:47:29;100738.50;;;23.51;46.30
64792;BME280;51226;47.504;19.074;2023-09-30T11:50:48;100748.22;;;23.53;46.49
64792;BME280;51226;47.504;19.074;2023-09-30T11:53:51;100739.38;;;23.51;46.65
64792;BME280;51226;47.504;19.074;2023-09-30T11:56:55;100737.63;;;23.47;46.67
64792;BME280;51226;47.504;19.074;2023-09-30T11:59:58;100727.88;;;23.47;47.01
64792;BME280;51226;47.504;19.074;2023-09-30T12:03:02;100732.22;;;23.58;47.18
64792;BME280;51226;47.504;19.074;2023-09-30T12:06:06;100724.31;;;23.48;47.33
64792;BME280;51226;47.504;19.074;2023-09-30T12:09:08;100732.34;;;23.44;47.77
64792;BME280;51226;47.504;19.074;2023-09-30T12:12:16;100725.31;;;23.34;48.09
64792;BME280;51226;47.504;19.074;2023-09-30T12:15:19;100723.62;;;23.25;48.59
64792;BME280;51226;47.504;19.074;2023-09-30T12:18:24;100730.72;;;23.27;49.39
64792;BME280;51226;47.504;19.074;2023-09-30T12:21:27;100729.06;;;23.16;49.85
64792;BME280;51226;47.504;19.074;2023-09-30T12:24:31;100731.75;;;23.12;50.54
64792;BME280;51226;47.504;19.074;2023-09-30T12:27:34;100729.94;;;23.13;50.98
64792;BME280;51226;47.504;19.074;2023-09-30T12:30:37;100727.31;;;23.08;51.40
64792;BME280;51226;47.504;19.074;2023-09-30T12:33:39;100732.63;;;23.05;51.54
64792;BME280;51226;47.504;19.074;2023-09-30T12:36:43;100736.31;;;22.89;52.00
64792;BME280;51226;47.504;19.074;2023-09-30T12:39:46;100730.16;;;22.82;52.45
64792;BME280;51226;47.504;19.074;2023-09-30T12:42:50;100732.84;;;22.78;52.74
64792;BME280;51226;47.504;19.074;2023-09-30T12:45:53;100744.31;;;22.86;52.85
64792;BME280;51226;47.504;19.074;2023-09-30T12:48:56;100742.63;;;22.75;52.92
64792;BME280;51226;47.504;19.074;2023-09-30T12:52:00;100738.19;;;22.74;53.09
64792;BME280;51226;47.504;19.074;2023-09-30T12:55:04;100739.00;;;22.84;53.31
64792;BME280;51226;47.504;19.074;2023-09-30T12:58:07;100745.19;;;22.85;53.31
64792;BME280;51226;47.504;19.074;2023-09-30T13:01:12;100743.47;;;22.82;53.34
64792;BME280;51226;47.504;19.074;2023-09-30T13:04:23;100741.69;;;22.81;53.51
64792;BME280;51226;47.504;19.074;2023-09-30T13:07:28;100735.47;;;22.84;53.67
64792;BME280;51226;47.504;19.074;2023-09-30T13:10:30;100733.66;;;22.90;53.58
64792;BME280;51226;47.504;19.074;2023-09-30T13:13:34;100738.16;;;22.79;53.79
64792;BME280;51226;47.504;19.074;2023-09-30T13:16:38;100737.25;;;22.82;54.08
64792;BME280;51226;47.504;19.074;2023-09-30T13:19:41;100730.22;;;22.70;54.16
64792;BME280;51226;47.504;19.074;2023-09-30T13:22:44;100726.69;;;22.71;54.48
64792;BME280;51226;47.504;19.074;2023-09-30T13:25:48;100722.22;;;22.73;54.47
64792;BME280;51226;47.504;19.074;2023-09-30T13:28:50;100712.44;;;22.80;54.43
64792;BME280;51226;47.504;19.074;2023-09-30T13:31:56;100707.09;;;22.84;54.16
64792;BME280;51226;47.504;19.074;2023-09-30T13:35:01;100711.44;;;22.94;54.00
64792;BME280;51226;47.504;19.074;2023-09-30T13:38:04;100713.16;;;23.08;53.80
64792;BME280;51226;47.504;19.074;2023-09-30T13:41:07;100715.63;;;23.28;53.35
64792;BME280;51226;47.504;19.074;2023-09-30T13:44:10;100708.31;;;23.50;52.71
64792;BME280;51226;47.504;19.074;2023-09-30T13:47:14;100703.78;;;23.58;52.49
64792;BME280;51226;47.504;19.074;2023-09-30T13:50:17;100695.56;;;23.84;51.81
64792;BME280;51226;47.504;19.074;2023-09-30T13:53:19;100698.19;;;23.89;51.81
64792;BME280;51226;47.504;19.074;2023-09-30T13:56:22;100700.47;;;24.17;51.16
64792;BME280;51226;47.504;19.074;2023-09-30T13:59:26;100698.13;;;24.60;49.76
64792;BME280;51226;47.504;19.074;2023-09-30T14:02:30;100692.47;;;24.81;49.32
64792;BME280;51226;47.504;19.074;2023-09-30T14:05:33;100695.94;;;24.87;49.26
64792;BME280;51226;47.504;19.074;2023-09-30T14:08:36;100700.31;;;24.93;48.99
64792;BME280;51226;47.504;19.074;2023-09-30T14:11:38;100691.22;;;25.03;48.43
64792;BME280;51226;47.504;19.074;2023-09-30T14:14:41;100693.97;;;24.99;48.41
64792;BME280;51226;47.504;19.074;2023-09-30T14:17:45;100689.88;;;24.77;49.12
64792;BME280;51226;47.504;19.074;2023-09-30T14:20:48;100682.06;;;24.64;49.60
64792;BME280;51226;47.504;19.074;2023-09-30T14:23:50;100682.22;;;24.53;49.85
64792;BME280;51226;47.504;19.074;2023-09-30T14:26:53;100684.22;;;24.37;50.51
64792;BME280;51226;47.504;19.074;2023-09-30T14:29:58;100686.06;;;24.32;50.60
64792;BME280;51226;47.504;19.074;2023-09-30T14:33:03;100680.06;;;24.17;51.01
64792;BME280;51226;47.504;19.074;2023-09-30T14:36:08;100679.31;;;24.06;51.31
64792;BME280;51226;47.504;19.074;2023-09-30T14:39:13;100687.34;;;24.01;51.61
64792;BME280;51226;47.504;19.074;2023-09-30T14:42:16;100670.41;;;24.05;51.74
64792;BME280;51226;47.504;19.074;2023-09-30T14:45:19;100672.06;;;24.17;51.67
64792;BME280;51226;47.504;19.074;2023-09-30T14:48:24;100663.87;;;24.31;51.51
64792;BME280;51226;47.504;19.074;2023-09-30T14:51:27;100667.31;;;24.38;51.39
64792;BME280;51226;47.504;19.074;2023-09-30T14:54:30;100664.44;;;24.52;51.21
64792;BME280;51226;47.504;19.074;2023-09-30T14:57:33;100664.50;;;24.47;51.14
64792;BME280;51226;47.504;19.074;2023-09-30T15:00:36;100661.94;;;24.42;51.19
64792;BME280;51226;47.504;19.074;2023-09-30T15:03:39;100666.44;;;24.37;51.36
64792;BME280;51226;47.504;19.074;2023-09-30T15:06:42;100668.16;;;24.40;51.60
64792;BME280;51226;47.504;19.074;2023-09-30T15:09:46;100660.41;;;24.25;51.90
64792;BME280;51226;47.504;19.074;2023-09-30T15:12:49;100669.28;;;24.23;51.93
64792;BME280;51226;47.504;19.074;2023-09-30T15:15:52;100659.72;;;24.07;52.24
64792;BME280;51226;47.504;19.074;2023-09-30T15:18:55;100669.56;;;24.02;52.52
64792;BME280;51226;47.504;19.074;2023-09-30T15:21:58;100672.38;;;23.91;52.86
64792;BME280;51226;47.504;19.074;2023-09-30T15:25:01;100673.44;;;23.73;53.21
64792;BME280;51226;47.504;19.074;2023-09-30T15:28:04;100664.72;;;23.59;53.67
64792;BME280;51226;47.504;19.074;2023-09-30T15:31:07;100671.88;;;23.55;54.20
64792;BME280;51226;47.504;19.074;2023-09-30T15:34:10;100667.56;;;23.42;54.29
64792;BME280;51226;47.504;19.074;2023-09-30T15:37:14;100673.03;;;23.28;54.72
64792;BME280;51226;47.504;19.074;2023-09-30T15:40:17;100673.06;;;23.25;54.94
64792;BME280;51226;47.504;19.074;2023-09-30T15:43:20;100661.66;;;23.12;55.19
64792;BME280;51226;47.504;19.074;2023-09-30T15:46:23;100666.16;;;23.02;55.83
64792;BME280;51226;47.504;19.074;2023-09-30T15:49:27;100674.25;;;22.87;56.13
64792;BME280;51226;47.504;19.074;2023-09-30T15:52:30;100668.16;;;22.77;56.40
64792;BME280;51226;47.504;19.074;2023-09-30T15:55:32;100668.22;;;22.63;56.93
64792;BME280;51226;47.504;19.074;2023-09-30T15:58:35;100670.03;;;22.58;57.40
64792;BME280;51226;47.504;19.074;2023-09-30T16:01:38;100666.47;;;22.62;57.71
64792;BME280;51226;47.504;19.074;2023-09-30T16:04:41;100675.34;;;22.58;57.86